sensor_id;sensor_type;location;lat;lon;timestamp;temperature;humidity
17619;DHT22;8928;51.678;6.074;2022-11-15T00:00:08;7.60;99.90
17619;DHT22;8928;51.678;6.074;2022-11-15T00:02:56;7.60;99.90
17619;DHT22;8928;51.678;6.074;2022-11-15T00:05:43;7.70;99.90
17619;DHT22;8928;51.678;6.074;2022-11-15T00:08:32;7.70;99.90
17619;DHT22;8928;51.678;6.074;2022-11-15T00:11:20;7.70;99.90
17619;DHT22;8928;51.678;6.074;2022-11-15T00:14:07;7.80;99.90
17619;DHT22;8928;51.678;6.074;2022-11-15T00:16:54;7.80;99.90
17619;DHT22;8928;51.678;6.074;2022-11-15T00:19:41;7.80;99.90
17619;DHT22;8928;51.678;6.074;2022-11-15T00:22:31;7.80;99.90
17619;DHT22;8928;51.678;6.074;2022-11-15T00:25:20;7.80;99.90
17619;DHT22;8928;51.678;6.074;2022-11-15T00:28:07;7.90;99.90
17619;DHT22;8928;51.678;6.074;2022-11-15T00:31:00;7.90;99.90
17619;DHT22;8928;51.678;6.074;2022-11-15T00:33:47;7.90;99.90
17619;DHT22;8928;51.678;6.074;2022-11-15T00:36:34;7.90;99.90
17619;DHT22;8928;51.678;6.074;2022-11-15T00:39:21;8.00;99.90
17619;DHT22;8928;51.678;6.074;2022-11-15T00:42:09;8.00;99.90
17619;DHT22;8928;51.678;6.074;2022-11-15T00:44:56;8.00;99.90
17619;DHT22;8928;51.678;6.074;2022-11-15T00:47:44;8.00;99.90
17619;DHT22;8928;51.678;6.074;2022-11-15T00:50:31;8.00;99.90
17619;DHT22;8928;51.678;6.074;2022-11-15T00:53:19;8.00;99.90
17619;DHT22;8928;51.678;6.074;2022-11-15T00:56:06;8.00;99.90
17619;DHT22;8928;51.678;6.074;2022-11-15T00:58:55;8.10;99.90
17619;DHT22;8928;51.678;6.074;2022-11-15T01:01:42;8.10;99.90
17619;DHT22;8928;51.678;6.074;2022-11-15T01:04:29;8.10;99.90
17619;DHT22;8928;51.678;6.074;2022-11-15T01:07:16;8.10;99.90
17619;DHT22;8928;51.678;6.074;2022-11-15T01:10:05;8.10;99.90
17619;DHT22;8928;51.678;6.074;2022-11-15T01:12:52;8.10;99.90
17619;DHT22;8928;51.678;6.074;2022-11-15T01:15:41;8.10;99.90
17619;DHT22;8928;51.678;6.074;2022-11-15T01:18:28;8.10;99.90
17619;DHT22;8928;51.678;6.074;2022-11-15T01:21:18;8.20;99.90
17619;DHT22;8928;51.678;6.074;2022-11-15T01:24:07;8.20;99.90
17619;DHT22;8928;51.678;6.074;2022-11-15T01:26:54;8.20;99.90
17619;DHT22;8928;51.678;6.074;2022-11-15T01:29:41;8.20;99.90
17619;DHT22;8928;51.678;6.074;2022-11-15T01:32:30;8.20;99.90
17619;DHT22;8928;51.678;6.074;2022-11-15T01:35:17;8.30;99.90
17619;DHT22;8928;51.678;6.074;2022-11-15T01:38:04;8.30;99.90
17619;DHT22;8928;51.678;6.074;2022-11-15T01:40:51;8.30;99.90
17619;DHT22;8928;51.678;6.074;2022-11-15T01:43:39;8.30;99.90
17619;DHT22;8928;51.678;6.074;2022-11-15T01:46:29;8.30;99.90
17619;DHT22;8928;51.678;6.074;2022-11-15T01:49:21;8.40;99.90
17619;DHT22;8928;51.678;6.074;2022-11-15T01:52:11;8.40;99.90
17619;DHT22;8928;51.678;6.074;2022-11-15T01:55:03;8.40;99.90
17619;DHT22;8928;51.678;6.074;2022-11-15T01:57:53;8.50;99.90
17619;DHT22;8928;51.678;6.074;2022-11-15T02:00:42;8.50;99.90
17619;DHT22;8928;51.678;6.074;2022-11-15T02:03:35;8.50;99.90
17619;DHT22;8928;51.678;6.074;2022-11-15T02:06:26;8.50;99.90
17619;DHT22;8928;51.678;6.074;2022-11-15T02:09:13;8.60;99.90
17619;DHT22;8928;51.678;6.074;2022-11-15T02:12:00;8.60;99.90
17619;DHT22;8928;51.678;6.074;2022-11-15T02:14:49;8.60;99.90
17619;DHT22;8928;51.678;6.074;2022-11-15T02:17:56;8.60;99.90
17619;DHT22;8928;51.678;6.074;2022-11-15T02:21:03;8.60;99.90
17619;DHT22;8928;51.678;6.074;2022-11-15T02:28:03;8.60;99.90
17619;DHT22;8928;51.678;6.074;2022-11-15T02:31:00;8.60;99.90
17619;DHT22;8928;51.678;6.074;2022-11-15T02:33:54;8.60;99.90
17619;DHT22;8928;51.678;6.074;2022-11-15T02:36:52;8.60;99.90
17619;DHT22;8928;51.678;6.074;2022-11-15T02:39:46;8.60;99.90
17619;DHT22;8928;51.678;6.074;2022-11-15T02:42:36;8.70;99.90
17619;DHT22;8928;51.678;6.074;2022-11-15T02:45:47;8.60;99.90
17619;DHT22;8928;51.678;6.074;2022-11-15T02:48:37;8.70;99.90
17619;DHT22;8928;51.678;6.074;2022-11-15T02:51:24;8.80;99.90
17619;DHT22;8928;51.678;6.074;2022-11-15T02:54:13;8.80;99.90
17619;DHT22;8928;51.678;6.074;2022-11-15T02:57:03;8.90;99.90
17619;DHT22;8928;51.678;6.074;2022-11-15T03:00:04;8.80;99.90
17619;DHT22;8928;51.678;6.074;2022-11-15T03:03:05;8.90;99.90
17619;DHT22;8928;51.678;6.074;2022-11-15T03:06:05;8.80;99.90
17619;DHT22;8928;51.678;6.074;2022-11-15T03:09:02;8.80;99.90
17619;DHT22;8928;51.678;6.074;2022-11-15T03:11:54;8.90;99.90
17619;DHT22;8928;51.678;6.074;2022-11-15T03:14:51;8.90;99.90
17619;DHT22;8928;51.678;6.074;2022-11-15T03:17:45;9.00;99.90
17619;DHT22;8928;51.678;6.074;2022-11-15T03:20:35;9.00;99.90
17619;DHT22;8928;51.678;6.074;2022-11-15T03:23:24;9.00;99.90
17619;DHT22;8928;51.678;6.074;2022-11-15T03:26:14;9.00;99.90
17619;DHT22;8928;51.678;6.074;2022-11-15T03:29:06;9.00;99.90
17619;DHT22;8928;51.678;6.074;2022-11-15T03:32:05;9.00;99.90
17619;DHT22;8928;51.678;6.074;2022-11-15T03:34:58;9.10;99.90
17619;DHT22;8928;51.678;6.074;2022-11-15T03:37:52;9.10;99.90
17619;DHT22;8928;51.678;6.074;2022-11-15T03:40:44;9.10;99.90
17619;DHT22;8928;51.678;6.074;2022-11-15T03:43:36;9.10;99.90
17619;DHT22;8928;51.678;6.074;2022-11-15T03:46:28;9.00;99.90
17619;DHT22;8928;51.678;6.074;2022-11-15T03:49:24;9.00;99.90
17619;DHT22;8928;51.678;6.074;2022-11-15T03:52:11;9.00;99.90
17619;DHT22;8928;51.678;6.074;2022-11-15T03:55:00;9.00;99.90
17619;DHT22;8928;51.678;6.074;2022-11-15T03:57:53;9.00;99.90
17619;DHT22;8928;51.678;6.074;2022-11-15T04:00:41;9.10;99.90
17619;DHT22;8928;51.678;6.074;2022-11-15T04:03:28;9.10;99.90
17619;DHT22;8928;51.678;6.074;2022-11-15T04:06:15;9.10;99.90
17619;DHT22;8928;51.678;6.074;2022-11-15T04:09:02;9.20;99.90
17619;DHT22;8928;51.678;6.074;2022-11-15T04:11:49;9.20;99.90
17619;DHT22;8928;51.678;6.074;2022-11-15T04:14:38;9.30;99.90
17619;DHT22;8928;51.678;6.074;2022-11-15T04:17:46;9.40;99.90
17619;DHT22;8928;51.678;6.074;2022-11-15T04:20:33;9.40;99.90
17619;DHT22;8928;51.678;6.074;2022-11-15T04:23:34;9.40;99.90
17619;DHT22;8928;51.678;6.074;2022-11-15T04:26:47;9.50;99.90
17619;DHT22;8928;51.678;6.074;2022-11-15T04:29:35;9.50;99.90
17619;DHT22;8928;51.678;6.074;2022-11-15T04:32:23;9.70;99.90
17619;DHT22;8928;51.678;6.074;2022-11-15T04:35:10;9.70;99.90
17619;DHT22;8928;51.678;6.074;2022-11-15T04:37:58;9.70;99.90
17619;DHT22;8928;51.678;6.074;2022-11-15T04:40:45;9.80;99.90
17619;DHT22;8928;51.678;6.074;2022-11-15T04:43:33;9.80;99.90
17619;DHT22;8928;51.678;6.074;2022-11-15T04:46:20;9.80;99.90
17619;DHT22;8928;51.678;6.074;2022-11-15T04:49:08;9.90;99.90
17619;DHT22;8928;51.678;6.074;2022-11-15T04:51:55;9.90;99.90
17619;DHT22;8928;51.678;6.074;2022-11-15T04:54:42;9.90;99.90
17619;DHT22;8928;51.678;6.074;2022-11-15T04:57:30;9.90;99.90
17619;DHT22;8928;51.678;6.074;2022-11-15T05:00:17;9.90;99.90
17619;DHT22;8928;51.678;6.074;2022-11-15T05:03:04;9.90;99.90
17619;DHT22;8928;51.678;6.074;2022-11-15T05:06:10;9.90;99.90
17619;DHT22;8928;51.678;6.074;2022-11-15T05:08:57;9.90;99.90
17619;DHT22;8928;51.678;6.074;2022-11-15T05:11:45;9.90;99.90
17619;DHT22;8928;51.678;6.074;2022-11-15T05:14:32;9.90;99.90
17619;DHT22;8928;51.678;6.074;2022-11-15T05:17:19;9.90;99.90
17619;DHT22;8928;51.678;6.074;2022-11-15T05:20:07;9.90;99.90
17619;DHT22;8928;51.678;6.074;2022-11-15T05:22:55;10.00;99.90
17619;DHT22;8928;51.678;6.074;2022-11-15T05:25:42;10.00;99.90
17619;DHT22;8928;51.678;6.074;2022-11-15T05:28:30;9.90;99.90
17619;DHT22;8928;51.678;6.074;2022-11-15T05:31:17;10.00;99.90
17619;DHT22;8928;51.678;6.074;2022-11-15T05:34:04;10.10;99.90
17619;DHT22;8928;51.678;6.074;2022-11-15T05:36:52;10.20;99.90
17619;DHT22;8928;51.678;6.074;2022-11-15T05:39:41;10.20;99.90
17619;DHT22;8928;51.678;6.074;2022-11-15T05:42:29;10.20;99.90
17619;DHT22;8928;51.678;6.074;2022-11-15T05:45:17;10.20;99.90
17619;DHT22;8928;51.678;6.074;2022-11-15T05:48:06;10.20;99.90
17619;DHT22;8928;51.678;6.074;2022-11-15T05:50:55;10.20;99.90
17619;DHT22;8928;51.678;6.074;2022-11-15T05:53:43;10.30;99.90
17619;DHT22;8928;51.678;6.074;2022-11-15T05:56:32;10.30;99.90
17619;DHT22;8928;51.678;6.074;2022-11-15T05:59:19;10.30;99.90
17619;DHT22;8928;51.678;6.074;2022-11-15T06:02:06;10.30;99.90
17619;DHT22;8928;51.678;6.074;2022-11-15T06:04:53;10.30;99.90
17619;DHT22;8928;51.678;6.074;2022-11-15T06:07:40;10.30;99.90
17619;DHT22;8928;51.678;6.074;2022-11-15T06:10:28;10.30;99.90
17619;DHT22;8928;51.678;6.074;2022-11-15T06:13:16;10.30;99.90
17619;DHT22;8928;51.678;6.074;2022-11-15T06:16:04;10.30;99.90
17619;DHT22;8928;51.678;6.074;2022-11-15T06:18:51;10.30;99.90
17619;DHT22;8928;51.678;6.074;2022-11-15T06:21:38;10.30;99.90
17619;DHT22;8928;51.678;6.074;2022-11-15T06:24:25;10.30;99.90
17619;DHT22;8928;51.678;6.074;2022-11-15T06:27:12;10.30;99.90
17619;DHT22;8928;51.678;6.074;2022-11-15T06:30:00;10.30;99.90
17619;DHT22;8928;51.678;6.074;2022-11-15T06:32:48;10.30;99.90
17619;DHT22;8928;51.678;6.074;2022-11-15T06:35:35;10.30;99.90
17619;DHT22;8928;51.678;6.074;2022-11-15T06:38:22;10.30;99.90
17619;DHT22;8928;51.678;6.074;2022-11-15T06:41:11;10.30;99.90
17619;DHT22;8928;51.678;6.074;2022-11-15T06:43:58;10.20;99.90
17619;DHT22;8928;51.678;6.074;2022-11-15T06:46:46;10.20;99.90
17619;DHT22;8928;51.678;6.074;2022-11-15T06:49:33;10.20;99.90
17619;DHT22;8928;51.678;6.074;2022-11-15T06:52:20;10.20;99.90
17619;DHT22;8928;51.678;6.074;2022-11-15T06:55:08;10.20;99.90
17619;DHT22;8928;51.678;6.074;2022-11-15T06:57:55;10.30;99.90
17619;DHT22;8928;51.678;6.074;2022-11-15T07:00:43;10.30;99.90
17619;DHT22;8928;51.678;6.074;2022-11-15T07:03:31;10.30;99.90
17619;DHT22;8928;51.678;6.074;2022-11-15T07:06:18;10.30;99.90
17619;DHT22;8928;51.678;6.074;2022-11-15T07:09:05;10.30;99.90
17619;DHT22;8928;51.678;6.074;2022-11-15T07:11:52;10.30;99.90
17619;DHT22;8928;51.678;6.074;2022-11-15T07:14:39;10.40;99.90
17619;DHT22;8928;51.678;6.074;2022-11-15T07:17:26;10.60;99.90
17619;DHT22;8928;51.678;6.074;2022-11-15T07:20:16;10.60;99.90
17619;DHT22;8928;51.678;6.074;2022-11-15T07:23:04;10.60;99.90
17619;DHT22;8928;51.678;6.074;2022-11-15T07:25:51;10.70;99.90
17619;DHT22;8928;51.678;6.074;2022-11-15T07:28:38;10.70;99.90
17619;DHT22;8928;51.678;6.074;2022-11-15T07:31:25;10.70;99.90
17619;DHT22;8928;51.678;6.074;2022-11-15T07:34:13;10.70;99.90
17619;DHT22;8928;51.678;6.074;2022-11-15T07:37:01;10.70;99.90
17619;DHT22;8928;51.678;6.074;2022-11-15T07:39:48;10.70;99.90
17619;DHT22;8928;51.678;6.074;2022-11-15T07:42:35;10.70;99.90
17619;DHT22;8928;51.678;6.074;2022-11-15T07:45:42;10.60;99.90
17619;DHT22;8928;51.678;6.074;2022-11-15T07:48:30;10.60;99.90
17619;DHT22;8928;51.678;6.074;2022-11-15T07:51:17;10.60;99.90
17619;DHT22;8928;51.678;6.074;2022-11-15T07:54:05;10.60;99.90
17619;DHT22;8928;51.678;6.074;2022-11-15T07:56:52;10.60;99.90
17619;DHT22;8928;51.678;6.074;2022-11-15T07:59:39;10.60;99.90
17619;DHT22;8928;51.678;6.074;2022-11-15T08:02:26;10.60;99.90
17619;DHT22;8928;51.678;6.074;2022-11-15T08:05:14;10.70;99.90
17619;DHT22;8928;51.678;6.074;2022-11-15T08:08:01;10.70;99.90
17619;DHT22;8928;51.678;6.074;2022-11-15T08:10:49;10.70;99.90
17619;DHT22;8928;51.678;6.074;2022-11-15T08:13:36;10.70;99.90
17619;DHT22;8928;51.678;6.074;2022-11-15T08:16:23;10.70;99.90
17619;DHT22;8928;51.678;6.074;2022-11-15T08:19:10;10.60;99.90
17619;DHT22;8928;51.678;6.074;2022-11-15T08:21:58;10.60;99.90
17619;DHT22;8928;51.678;6.074;2022-11-15T08:24:45;10.60;99.90
17619;DHT22;8928;51.678;6.074;2022-11-15T08:27:33;10.60;99.90
17619;DHT22;8928;51.678;6.074;2022-11-15T08:30:20;10.60;99.90
17619;DHT22;8928;51.678;6.074;2022-11-15T08:33:10;10.70;99.90
17619;DHT22;8928;51.678;6.074;2022-11-15T08:35:58;10.70;99.90
17619;DHT22;8928;51.678;6.074;2022-11-15T08:38:45;10.70;99.90
17619;DHT22;8928;51.678;6.074;2022-11-15T08:41:34;10.70;99.90
17619;DHT22;8928;51.678;6.074;2022-11-15T08:44:24;10.80;99.90
17619;DHT22;8928;51.678;6.074;2022-11-15T08:47:11;10.90;99.90
17619;DHT22;8928;51.678;6.074;2022-11-15T08:49:59;11.00;99.90
17619;DHT22;8928;51.678;6.074;2022-11-15T08:52:46;11.00;99.90
17619;DHT22;8928;51.678;6.074;2022-11-15T08:55:37;11.00;99.90
17619;DHT22;8928;51.678;6.074;2022-11-15T08:58:24;11.10;99.90
17619;DHT22;8928;51.678;6.074;2022-11-15T09:01:17;11.10;99.90
17619;DHT22;8928;51.678;6.074;2022-11-15T09:04:05;11.10;99.90
17619;DHT22;8928;51.678;6.074;2022-11-15T09:06:52;11.00;99.90
17619;DHT22;8928;51.678;6.074;2022-11-15T09:09:39;11.00;99.90
17619;DHT22;8928;51.678;6.074;2022-11-15T09:12:26;11.00;99.90
17619;DHT22;8928;51.678;6.074;2022-11-15T09:15:13;11.00;99.90
17619;DHT22;8928;51.678;6.074;2022-11-15T09:18:02;10.90;99.90
17619;DHT22;8928;51.678;6.074;2022-11-15T09:20:49;11.00;99.90
17619;DHT22;8928;51.678;6.074;2022-11-15T09:23:36;11.00;99.90
17619;DHT22;8928;51.678;6.074;2022-11-15T09:26:23;11.00;99.90
17619;DHT22;8928;51.678;6.074;2022-11-15T09:29:11;11.10;99.90
17619;DHT22;8928;51.678;6.074;2022-11-15T09:31:58;11.20;99.90
17619;DHT22;8928;51.678;6.074;2022-11-15T09:34:46;11.30;99.90
17619;DHT22;8928;51.678;6.074;2022-11-15T09:37:33;11.50;99.90
17619;DHT22;8928;51.678;6.074;2022-11-15T09:40:20;11.50;99.90
17619;DHT22;8928;51.678;6.074;2022-11-15T09:43:28;11.50;99.90
17619;DHT22;8928;51.678;6.074;2022-11-15T09:46:22;11.50;99.90
17619;DHT22;8928;51.678;6.074;2022-11-15T09:49:13;11.60;99.90
17619;DHT22;8928;51.678;6.074;2022-11-15T09:52:03;11.60;99.90
17619;DHT22;8928;51.678;6.074;2022-11-15T09:54:51;11.70;99.90
17619;DHT22;8928;51.678;6.074;2022-11-15T09:57:41;11.80;99.90
17619;DHT22;8928;51.678;6.074;2022-11-15T10:00:34;12.00;99.90
17619;DHT22;8928;51.678;6.074;2022-11-15T10:03:26;11.90;99.90
17619;DHT22;8928;51.678;6.074;2022-11-15T10:06:21;11.90;99.90
17619;DHT22;8928;51.678;6.074;2022-11-15T10:09:15;11.90;99.90
17619;DHT22;8928;51.678;6.074;2022-11-15T10:12:03;12.00;99.90
17619;DHT22;8928;51.678;6.074;2022-11-15T10:15:00;12.10;99.90
17619;DHT22;8928;51.678;6.074;2022-11-15T10:18:13;12.20;99.90
17619;DHT22;8928;51.678;6.074;2022-11-15T10:21:10;12.30;99.90
17619;DHT22;8928;51.678;6.074;2022-11-15T10:23:59;12.40;99.90
17619;DHT22;8928;51.678;6.074;2022-11-15T10:26:48;12.60;99.90
17619;DHT22;8928;51.678;6.074;2022-11-15T10:29:35;12.70;99.90
17619;DHT22;8928;51.678;6.074;2022-11-15T10:32:22;12.90;99.90
17619;DHT22;8928;51.678;6.074;2022-11-15T10:35:20;13.00;99.90
17619;DHT22;8928;51.678;6.074;2022-11-15T10:38:10;13.00;99.90
17619;DHT22;8928;51.678;6.074;2022-11-15T10:41:07;13.00;99.90
17619;DHT22;8928;51.678;6.074;2022-11-15T10:44:09;12.90;99.90
17619;DHT22;8928;51.678;6.074;2022-11-15T10:47:21;12.90;99.90
17619;DHT22;8928;51.678;6.074;2022-11-15T10:50:29;12.80;99.90
17619;DHT22;8928;51.678;6.074;2022-11-15T10:53:27;12.80;99.90
17619;DHT22;8928;51.678;6.074;2022-11-15T10:56:21;12.90;99.90
17619;DHT22;8928;51.678;6.074;2022-11-15T10:59:24;13.10;99.90
17619;DHT22;8928;51.678;6.074;2022-11-15T11:02:37;13.30;99.90
17619;DHT22;8928;51.678;6.074;2022-11-15T11:05:27;13.40;99.90
17619;DHT22;8928;51.678;6.074;2022-11-15T11:08:23;13.30;99.90
17619;DHT22;8928;51.678;6.074;2022-11-15T11:11:10;13.40;99.90
17619;DHT22;8928;51.678;6.074;2022-11-15T11:14:11;13.40;99.90
17619;DHT22;8928;51.678;6.074;2022-11-15T11:17:05;13.40;99.90
17619;DHT22;8928;51.678;6.074;2022-11-15T11:20:00;13.40;99.90
17619;DHT22;8928;51.678;6.074;2022-11-15T11:23:00;13.30;99.90
17619;DHT22;8928;51.678;6.074;2022-11-15T11:25:54;13.40;99.90
17619;DHT22;8928;51.678;6.074;2022-11-15T11:28:50;13.50;99.90
17619;DHT22;8928;51.678;6.074;2022-11-15T11:31:46;13.50;99.90
17619;DHT22;8928;51.678;6.074;2022-11-15T11:34:47;13.50;99.90
17619;DHT22;8928;51.678;6.074;2022-11-15T11:37:43;13.50;99.90
17619;DHT22;8928;51.678;6.074;2022-11-15T11:40:34;13.50;99.90
17619;DHT22;8928;51.678;6.074;2022-11-15T11:43:30;13.50;99.90
17619;DHT22;8928;51.678;6.074;2022-11-15T11:46:32;13.60;99.90
17619;DHT22;8928;51.678;6.074;2022-11-15T11:49:28;13.60;99.90
17619;DHT22;8928;51.678;6.074;2022-11-15T11:52:22;13.60;99.90
17619;DHT22;8928;51.678;6.074;2022-11-15T11:55:15;13.60;99.90
17619;DHT22;8928;51.678;6.074;2022-11-15T11:58:09;13.60;99.90
17619;DHT22;8928;51.678;6.074;2022-11-15T12:01:02;13.40;99.90
17619;DHT22;8928;51.678;6.074;2022-11-15T12:03:56;13.40;99.90
17619;DHT22;8928;51.678;6.074;2022-11-15T12:06:50;13.30;99.90
17619;DHT22;8928;51.678;6.074;2022-11-15T12:09:44;13.40;99.90
17619;DHT22;8928;51.678;6.074;2022-11-15T12:12:38;13.50;99.90
17619;DHT22;8928;51.678;6.074;2022-11-15T12:15:29;13.40;99.90
17619;DHT22;8928;51.678;6.074;2022-11-15T12:18:18;13.60;99.90
17619;DHT22;8928;51.678;6.074;2022-11-15T12:21:08;13.60;99.90
17619;DHT22;8928;51.678;6.074;2022-11-15T12:24:02;13.70;99.90
17619;DHT22;8928;51.678;6.074;2022-11-15T12:26:57;13.60;99.90
17619;DHT22;8928;51.678;6.074;2022-11-15T12:29:47;13.60;99.90
17619;DHT22;8928;51.678;6.074;2022-11-15T12:32:37;13.50;99.90
17619;DHT22;8928;51.678;6.074;2022-11-15T12:35:32;13.50;99.90
17619;DHT22;8928;51.678;6.074;2022-11-15T12:38:54;13.50;99.90
17619;DHT22;8928;51.678;6.074;2022-11-15T12:41:42;13.50;99.90
17619;DHT22;8928;51.678;6.074;2022-11-15T12:44:59;13.50;99.90
17619;DHT22;8928;51.678;6.074;2022-11-15T12:47:46;13.50;99.90
17619;DHT22;8928;51.678;6.074;2022-11-15T12:50:55;13.60;99.90
17619;DHT22;8928;51.678;6.074;2022-11-15T12:53:43;13.70;99.90
17619;DHT22;8928;51.678;6.074;2022-11-15T12:56:31;13.80;99.90
17619;DHT22;8928;51.678;6.074;2022-11-15T12:59:47;13.90;99.90
17619;DHT22;8928;51.678;6.074;2022-11-15T13:02:37;14.00;99.90
17619;DHT22;8928;51.678;6.074;2022-11-15T13:08:54;14.00;99.90
17619;DHT22;8928;51.678;6.074;2022-11-15T13:11:47;14.00;99.90
17619;DHT22;8928;51.678;6.074;2022-11-15T13:14:46;13.90;99.90
17619;DHT22;8928;51.678;6.074;2022-11-15T13:17:36;13.90;99.90
17619;DHT22;8928;51.678;6.074;2022-11-15T13:20:27;13.70;99.90
17619;DHT22;8928;51.678;6.074;2022-11-15T13:23:15;13.60;99.90
17619;DHT22;8928;51.678;6.074;2022-11-15T13:26:12;13.50;99.90
17619;DHT22;8928;51.678;6.074;2022-11-15T13:29:02;13.40;99.90
17619;DHT22;8928;51.678;6.074;2022-11-15T13:31:50;13.50;99.90
17619;DHT22;8928;51.678;6.074;2022-11-15T13:34:43;13.50;99.90
17619;DHT22;8928;51.678;6.074;2022-11-15T13:37:32;13.60;99.90
17619;DHT22;8928;51.678;6.074;2022-11-15T13:40:23;13.60;99.90
17619;DHT22;8928;51.678;6.074;2022-11-15T13:43:22;13.60;99.90
17619;DHT22;8928;51.678;6.074;2022-11-15T13:46:15;13.50;99.90
17619;DHT22;8928;51.678;6.074;2022-11-15T13:49:04;13.40;99.90
17619;DHT22;8928;51.678;6.074;2022-11-15T13:51:53;13.40;99.90
17619;DHT22;8928;51.678;6.074;2022-11-15T13:54:43;13.40;99.90
17619;DHT22;8928;51.678;6.074;2022-11-15T13:57:36;13.50;99.90
17619;DHT22;8928;51.678;6.074;2022-11-15T14:00:32;13.50;99.90
17619;DHT22;8928;51.678;6.074;2022-11-15T14:03:21;13.40;99.90
17619;DHT22;8928;51.678;6.074;2022-11-15T14:06:11;13.40;99.90
17619;DHT22;8928;51.678;6.074;2022-11-15T14:12:27;13.00;99.90
17619;DHT22;8928;51.678;6.074;2022-11-15T14:15:27;12.80;99.90
17619;DHT22;8928;51.678;6.074;2022-11-15T14:18:40;12.70;99.90
17619;DHT22;8928;51.678;6.074;2022-11-15T14:21:28;12.60;99.90
17619;DHT22;8928;51.678;6.074;2022-11-15T14:24:17;12.60;99.90
17619;DHT22;8928;51.678;6.074;2022-11-15T14:27:23;12.50;99.90
17619;DHT22;8928;51.678;6.074;2022-11-15T14:30:15;12.50;99.90
17619;DHT22;8928;51.678;6.074;2022-11-15T14:33:11;12.40;99.90
17619;DHT22;8928;51.678;6.074;2022-11-15T14:36:04;12.30;99.90
17619;DHT22;8928;51.678;6.074;2022-11-15T14:38:52;12.20;99.90
17619;DHT22;8928;51.678;6.074;2022-11-15T14:41:41;12.20;99.90
17619;DHT22;8928;51.678;6.074;2022-11-15T14:44:28;12.10;99.90
17619;DHT22;8928;51.678;6.074;2022-11-15T14:47:15;12.10;99.90
17619;DHT22;8928;51.678;6.074;2022-11-15T14:50:03;12.10;99.90
17619;DHT22;8928;51.678;6.074;2022-11-15T14:52:50;12.00;99.90
17619;DHT22;8928;51.678;6.074;2022-11-15T14:55:37;12.00;99.90
17619;DHT22;8928;51.678;6.074;2022-11-15T14:58:25;11.90;99.90
17619;DHT22;8928;51.678;6.074;2022-11-15T15:01:14;11.90;99.90
17619;DHT22;8928;51.678;6.074;2022-11-15T15:04:03;11.90;99.90
17619;DHT22;8928;51.678;6.074;2022-11-15T15:06:50;11.90;99.90
17619;DHT22;8928;51.678;6.074;2022-11-15T15:09:37;11.90;99.90
17619;DHT22;8928;51.678;6.074;2022-11-15T15:12:24;11.90;99.90
17619;DHT22;8928;51.678;6.074;2022-11-15T15:15:14;11.90;99.90
17619;DHT22;8928;51.678;6.074;2022-11-15T15:18:02;11.90;99.90
17619;DHT22;8928;51.678;6.074;2022-11-15T15:20:55;11.90;99.90
17619;DHT22;8928;51.678;6.074;2022-11-15T15:23:43;11.90;99.90
17619;DHT22;8928;51.678;6.074;2022-11-15T15:26:30;11.90;99.90
17619;DHT22;8928;51.678;6.074;2022-11-15T15:29:19;11.90;99.90
17619;DHT22;8928;51.678;6.074;2022-11-15T15:32:08;11.90;99.90
17619;DHT22;8928;51.678;6.074;2022-11-15T15:34:55;11.90;99.90
17619;DHT22;8928;51.678;6.074;2022-11-15T15:37:44;11.90;99.90
17619;DHT22;8928;51.678;6.074;2022-11-15T15:40:33;11.90;99.90
17619;DHT22;8928;51.678;6.074;2022-11-15T15:43:20;11.90;99.90
17619;DHT22;8928;51.678;6.074;2022-11-15T15:46:08;11.90;99.90
17619;DHT22;8928;51.678;6.074;2022-11-15T15:48:57;11.90;99.90
17619;DHT22;8928;51.678;6.074;2022-11-15T15:51:44;11.90;99.90
17619;DHT22;8928;51.678;6.074;2022-11-15T15:54:31;11.90;99.90
17619;DHT22;8928;51.678;6.074;2022-11-15T15:57:18;11.90;99.90
17619;DHT22;8928;51.678;6.074;2022-11-15T16:00:07;11.90;99.90
17619;DHT22;8928;51.678;6.074;2022-11-15T16:02:54;11.90;99.90
17619;DHT22;8928;51.678;6.074;2022-11-15T16:05:42;12.00;99.90
17619;DHT22;8928;51.678;6.074;2022-11-15T16:08:29;12.00;99.90
17619;DHT22;8928;51.678;6.074;2022-11-15T16:11:16;12.00;99.90
17619;DHT22;8928;51.678;6.074;2022-11-15T16:14:03;12.00;99.90
17619;DHT22;8928;51.678;6.074;2022-11-15T16:16:50;12.00;99.90
17619;DHT22;8928;51.678;6.074;2022-11-15T16:19:37;12.00;99.90
17619;DHT22;8928;51.678;6.074;2022-11-15T16:22:26;12.00;99.90
17619;DHT22;8928;51.678;6.074;2022-11-15T16:25:14;12.00;99.90
17619;DHT22;8928;51.678;6.074;2022-11-15T16:28:01;12.00;99.90
17619;DHT22;8928;51.678;6.074;2022-11-15T16:30:49;12.00;99.90
17619;DHT22;8928;51.678;6.074;2022-11-15T16:33:45;12.00;99.90
17619;DHT22;8928;51.678;6.074;2022-11-15T16:36:34;12.00;99.90
17619;DHT22;8928;51.678;6.074;2022-11-15T16:39:22;12.00;99.90
17619;DHT22;8928;51.678;6.074;2022-11-15T16:42:09;12.10;99.90
17619;DHT22;8928;51.678;6.074;2022-11-15T16:44:56;12.00;99.90
17619;DHT22;8928;51.678;6.074;2022-11-15T16:47:43;12.00;99.90
17619;DHT22;8928;51.678;6.074;2022-11-15T16:50:33;12.00;99.90
17619;DHT22;8928;51.678;6.074;2022-11-15T16:53:26;12.00;99.90
17619;DHT22;8928;51.678;6.074;2022-11-15T16:56:23;12.00;99.90
17619;DHT22;8928;51.678;6.074;2022-11-15T16:59:15;12.00;99.90
17619;DHT22;8928;51.678;6.074;2022-11-15T17:02:02;12.10;99.90
17619;DHT22;8928;51.678;6.074;2022-11-15T17:04:49;12.10;99.90
17619;DHT22;8928;51.678;6.074;2022-11-15T17:07:36;12.00;99.90
17619;DHT22;8928;51.678;6.074;2022-11-15T17:10:25;12.00;99.90
17619;DHT22;8928;51.678;6.074;2022-11-15T17:13:14;12.00;99.90
17619;DHT22;8928;51.678;6.074;2022-11-15T17:16:05;11.90;99.90
17619;DHT22;8928;51.678;6.074;2022-11-15T17:18:53;11.90;99.90
17619;DHT22;8928;51.678;6.074;2022-11-15T17:21:40;11.90;99.90
17619;DHT22;8928;51.678;6.074;2022-11-15T17:24:27;11.90;99.90
17619;DHT22;8928;51.678;6.074;2022-11-15T17:27:14;12.00;99.90
17619;DHT22;8928;51.678;6.074;2022-11-15T17:30:05;12.00;99.90
17619;DHT22;8928;51.678;6.074;2022-11-15T17:32:52;12.00;99.90
17619;DHT22;8928;51.678;6.074;2022-11-15T17:35:39;11.90;99.90
17619;DHT22;8928;51.678;6.074;2022-11-15T17:38:27;11.90;99.90
17619;DHT22;8928;51.678;6.074;2022-11-15T17:41:15;11.80;99.90
17619;DHT22;8928;51.678;6.074;2022-11-15T17:44:02;11.80;99.90
17619;DHT22;8928;51.678;6.074;2022-11-15T17:46:50;11.70;99.90
17619;DHT22;8928;51.678;6.074;2022-11-15T17:49:37;11.70;99.90
17619;DHT22;8928;51.678;6.074;2022-11-15T17:52:25;11.70;99.90
17619;DHT22;8928;51.678;6.074;2022-11-15T17:55:12;11.70;99.90
17619;DHT22;8928;51.678;6.074;2022-11-15T17:57:59;11.70;99.90
17619;DHT22;8928;51.678;6.074;2022-11-15T18:00:47;11.70;99.90
17619;DHT22;8928;51.678;6.074;2022-11-15T18:03:36;11.70;99.90
17619;DHT22;8928;51.678;6.074;2022-11-15T18:06:23;11.70;99.90
17619;DHT22;8928;51.678;6.074;2022-11-15T18:09:10;11.60;99.90
17619;DHT22;8928;51.678;6.074;2022-11-15T18:11:58;11.60;99.90
17619;DHT22;8928;51.678;6.074;2022-11-15T18:14:45;11.60;99.90
17619;DHT22;8928;51.678;6.074;2022-11-15T18:17:32;11.60;99.90
17619;DHT22;8928;51.678;6.074;2022-11-15T18:20:20;11.50;99.90
17619;DHT22;8928;51.678;6.074;2022-11-15T18:23:07;11.50;99.90
17619;DHT22;8928;51.678;6.074;2022-11-15T18:25:54;11.50;99.90
17619;DHT22;8928;51.678;6.074;2022-11-15T18:28:43;11.40;99.90